sensor_id;sensor_type;location;lat;lon;timestamp;temperature;humidity
48768;DHT22;34933;40.968;14.538;2022-12-07T00:02:11;9.80;99.90
48768;DHT22;34933;40.968;14.538;2022-12-07T00:04:56;9.70;99.90
48768;DHT22;34933;40.968;14.538;2022-12-07T00:07:41;9.60;99.90
48768;DHT22;34933;40.968;14.538;2022-12-07T00:10:25;9.50;99.90
48768;DHT22;34933;40.968;14.538;2022-12-07T00:13:10;9.50;99.90
48768;DHT22;34933;40.968;14.538;2022-12-07T00:15:55;9.50;99.90
48768;DHT22;34933;40.968;14.538;2022-12-07T00:18:40;9.40;99.90
48768;DHT22;34933;40.968;14.538;2022-12-07T00:21:33;9.40;99.90
48768;DHT22;34933;40.968;14.538;2022-12-07T00:24:18;9.40;99.90
48768;DHT22;34933;40.968;14.538;2022-12-07T00:27:02;9.30;99.90
48768;DHT22;34933;40.968;14.538;2022-12-07T00:29:47;9.30;99.90
48768;DHT22;34933;40.968;14.538;2022-12-07T00:32:31;9.30;99.90
48768;DHT22;34933;40.968;14.538;2022-12-07T00:35:16;9.20;99.90
48768;DHT22;34933;40.968;14.538;2022-12-07T00:38:01;9.20;99.90
48768;DHT22;34933;40.968;14.538;2022-12-07T00:41:03;9.30;99.90
48768;DHT22;34933;40.968;14.538;2022-12-07T00:43:49;9.30;99.90
48768;DHT22;34933;40.968;14.538;2022-12-07T00:46:34;9.30;99.90
48768;DHT22;34933;40.968;14.538;2022-12-07T00:49:21;9.40;99.90
48768;DHT22;34933;40.968;14.538;2022-12-07T00:52:06;9.40;99.90
48768;DHT22;34933;40.968;14.538;2022-12-07T00:54:51;9.40;99.90
48768;DHT22;34933;40.968;14.538;2022-12-07T00:57:35;9.40;99.90
48768;DHT22;34933;40.968;14.538;2022-12-07T01:00:20;9.40;99.90
48768;DHT22;34933;40.968;14.538;2022-12-07T01:03:06;9.40;99.90
48768;DHT22;34933;40.968;14.538;2022-12-07T01:05:52;9.30;99.90
48768;DHT22;34933;40.968;14.538;2022-12-07T01:08:37;9.30;99.90
48768;DHT22;34933;40.968;14.538;2022-12-07T01:11:24;9.30;99.90
48768;DHT22;34933;40.968;14.538;2022-12-07T01:14:10;9.10;99.90
48768;DHT22;34933;40.968;14.538;2022-12-07T01:16:54;9.00;99.90
48768;DHT22;34933;40.968;14.538;2022-12-07T01:19:39;8.90;99.90
48768;DHT22;34933;40.968;14.538;2022-12-07T01:22:24;8.90;99.90
48768;DHT22;34933;40.968;14.538;2022-12-07T01:25:10;8.80;99.90
48768;DHT22;34933;40.968;14.538;2022-12-07T01:27:54;8.80;99.90
48768;DHT22;34933;40.968;14.538;2022-12-07T01:30:39;8.70;99.90
48768;DHT22;34933;40.968;14.538;2022-12-07T01:33:23;8.80;99.90
48768;DHT22;34933;40.968;14.538;2022-12-07T01:36:15;8.70;99.90
48768;DHT22;34933;40.968;14.538;2022-12-07T01:39:02;8.70;99.90
48768;DHT22;34933;40.968;14.538;2022-12-07T01:41:47;8.80;99.90
48768;DHT22;34933;40.968;14.538;2022-12-07T01:44:32;8.80;99.90
48768;DHT22;34933;40.968;14.538;2022-12-07T01:47:17;8.80;99.90
48768;DHT22;34933;40.968;14.538;2022-12-07T01:50:02;8.80;99.90
48768;DHT22;34933;40.968;14.538;2022-12-07T01:52:49;8.80;99.90
48768;DHT22;34933;40.968;14.538;2022-12-07T01:55:38;8.80;99.90
48768;DHT22;34933;40.968;14.538;2022-12-07T01:58:25;8.80;99.90
48768;DHT22;34933;40.968;14.538;2022-12-07T02:01:10;8.90;99.90
48768;DHT22;34933;40.968;14.538;2022-12-07T02:03:55;8.90;99.90
48768;DHT22;34933;40.968;14.538;2022-12-07T02:06:41;9.00;99.90
48768;DHT22;34933;40.968;14.538;2022-12-07T02:09:26;9.10;99.90
48768;DHT22;34933;40.968;14.538;2022-12-07T02:12:11;9.00;99.90
48768;DHT22;34933;40.968;14.538;2022-12-07T02:14:55;9.00;99.90
48768;DHT22;34933;40.968;14.538;2022-12-07T02:17:52;8.90;99.90
48768;DHT22;34933;40.968;14.538;2022-12-07T02:32:37;8.90;99.90
48768;DHT22;34933;40.968;14.538;2022-12-07T02:35:30;8.90;99.90
48768;DHT22;34933;40.968;14.538;2022-12-07T02:38:26;8.90;99.90
48768;DHT22;34933;40.968;14.538;2022-12-07T02:41:18;8.90;99.90
48768;DHT22;34933;40.968;14.538;2022-12-07T02:44:07;8.90;99.90
48768;DHT22;34933;40.968;14.538;2022-12-07T02:47:01;9.00;99.90
48768;DHT22;34933;40.968;14.538;2022-12-07T02:49:47;8.90;99.90
48768;DHT22;34933;40.968;14.538;2022-12-07T02:52:33;8.90;99.90
48768;DHT22;34933;40.968;14.538;2022-12-07T02:55:21;8.90;99.90
48768;DHT22;34933;40.968;14.538;2022-12-07T02:58:27;8.90;99.90
48768;DHT22;34933;40.968;14.538;2022-12-07T03:01:39;8.90;99.90
48768;DHT22;34933;40.968;14.538;2022-12-07T03:19:17;9.10;99.90
48768;DHT22;34933;40.968;14.538;2022-12-07T03:22:13;9.20;99.90
48768;DHT22;34933;40.968;14.538;2022-12-07T03:25:02;9.20;99.90
48768;DHT22;34933;40.968;14.538;2022-12-07T03:27:55;9.30;99.90
48768;DHT22;34933;40.968;14.538;2022-12-07T03:34:46;9.40;99.90
48768;DHT22;34933;40.968;14.538;2022-12-07T03:37:36;9.50;99.90
48768;DHT22;34933;40.968;14.538;2022-12-07T03:40:34;9.50;99.90
48768;DHT22;34933;40.968;14.538;2022-12-07T03:43:19;9.50;99.90
48768;DHT22;34933;40.968;14.538;2022-12-07T03:52:39;9.40;99.90
48768;DHT22;34933;40.968;14.538;2022-12-07T03:55:31;9.50;99.90
48768;DHT22;34933;40.968;14.538;2022-12-07T03:58:19;9.50;99.90
48768;DHT22;34933;40.968;14.538;2022-12-07T04:01:06;9.50;99.90
48768;DHT22;34933;40.968;14.538;2022-12-07T04:03:50;9.50;99.90
48768;DHT22;34933;40.968;14.538;2022-12-07T04:06:35;9.50;99.90
48768;DHT22;34933;40.968;14.538;2022-12-07T04:09:20;9.50;99.90
48768;DHT22;34933;40.968;14.538;2022-12-07T04:12:05;9.50;99.90
48768;DHT22;34933;40.968;14.538;2022-12-07T04:14:50;9.50;99.90
48768;DHT22;34933;40.968;14.538;2022-12-07T04:17:35;9.60;99.90
48768;DHT22;34933;40.968;14.538;2022-12-07T04:20:20;9.60;99.90
48768;DHT22;34933;40.968;14.538;2022-12-07T04:23:04;9.50;99.90
48768;DHT22;34933;40.968;14.538;2022-12-07T04:25:49;9.40;99.90
48768;DHT22;34933;40.968;14.538;2022-12-07T04:28:34;9.30;99.90
48768;DHT22;34933;40.968;14.538;2022-12-07T04:31:19;9.30;99.90
48768;DHT22;34933;40.968;14.538;2022-12-07T04:34:04;9.20;99.90
48768;DHT22;34933;40.968;14.538;2022-12-07T04:36:49;9.20;99.90
48768;DHT22;34933;40.968;14.538;2022-12-07T04:39:34;9.20;99.90
48768;DHT22;34933;40.968;14.538;2022-12-07T04:42:18;9.20;99.90
48768;DHT22;34933;40.968;14.538;2022-12-07T04:45:03;9.30;99.90
48768;DHT22;34933;40.968;14.538;2022-12-07T04:47:48;9.30;99.90
48768;DHT22;34933;40.968;14.538;2022-12-07T04:50:33;9.20;99.90
48768;DHT22;34933;40.968;14.538;2022-12-07T04:53:19;9.20;99.90
48768;DHT22;34933;40.968;14.538;2022-12-07T04:56:04;9.10;99.90
48768;DHT22;34933;40.968;14.538;2022-12-07T04:58:49;9.10;99.90
48768;DHT22;34933;40.968;14.538;2022-12-07T05:01:35;9.00;99.90
48768;DHT22;34933;40.968;14.538;2022-12-07T05:04:20;8.90;99.90
48768;DHT22;34933;40.968;14.538;2022-12-07T05:07:04;8.90;99.90
48768;DHT22;34933;40.968;14.538;2022-12-07T05:09:49;8.80;99.90
48768;DHT22;34933;40.968;14.538;2022-12-07T05:12:34;8.80;99.90
48768;DHT22;34933;40.968;14.538;2022-12-07T05:15:18;8.90;99.90
48768;DHT22;34933;40.968;14.538;2022-12-07T05:18:03;8.80;99.90
48768;DHT22;34933;40.968;14.538;2022-12-07T05:20:48;8.90;99.90
48768;DHT22;34933;40.968;14.538;2022-12-07T05:23:32;9.00;99.90
48768;DHT22;34933;40.968;14.538;2022-12-07T05:26:18;8.90;99.90
48768;DHT22;34933;40.968;14.538;2022-12-07T05:29:03;8.90;99.90
48768;DHT22;34933;40.968;14.538;2022-12-07T05:31:48;8.80;99.90
48768;DHT22;34933;40.968;14.538;2022-12-07T05:34:32;8.80;99.90
48768;DHT22;34933;40.968;14.538;2022-12-07T05:37:17;8.80;99.90
48768;DHT22;34933;40.968;14.538;2022-12-07T05:40:02;8.80;99.90
48768;DHT22;34933;40.968;14.538;2022-12-07T05:42:47;8.90;99.90
48768;DHT22;34933;40.968;14.538;2022-12-07T05:45:31;8.90;99.90
48768;DHT22;34933;40.968;14.538;2022-12-07T05:48:16;8.90;99.90
48768;DHT22;34933;40.968;14.538;2022-12-07T05:51:00;8.90;99.90
48768;DHT22;34933;40.968;14.538;2022-12-07T05:53:45;8.90;99.90
48768;DHT22;34933;40.968;14.538;2022-12-07T05:56:30;8.90;99.90
48768;DHT22;34933;40.968;14.538;2022-12-07T05:59:14;8.90;99.90
48768;DHT22;34933;40.968;14.538;2022-12-07T06:02:10;8.90;99.90
48768;DHT22;34933;40.968;14.538;2022-12-07T06:04:55;8.90;99.90
48768;DHT22;34933;40.968;14.538;2022-12-07T06:07:39;9.00;99.90
48768;DHT22;34933;40.968;14.538;2022-12-07T06:10:24;9.00;99.90
48768;DHT22;34933;40.968;14.538;2022-12-07T06:13:09;9.00;99.90
48768;DHT22;34933;40.968;14.538;2022-12-07T06:15:53;9.10;99.90
48768;DHT22;34933;40.968;14.538;2022-12-07T06:18:38;9.10;99.90
48768;DHT22;34933;40.968;14.538;2022-12-07T06:21:22;9.10;99.90
48768;DHT22;34933;40.968;14.538;2022-12-07T06:24:08;9.20;99.90
48768;DHT22;34933;40.968;14.538;2022-12-07T06:26:53;9.30;99.90
48768;DHT22;34933;40.968;14.538;2022-12-07T06:29:37;9.30;99.90
48768;DHT22;34933;40.968;14.538;2022-12-07T06:32:23;9.40;99.90
48768;DHT22;34933;40.968;14.538;2022-12-07T06:35:08;9.50;99.90
48768;DHT22;34933;40.968;14.538;2022-12-07T06:37:53;9.60;99.90
48768;DHT22;34933;40.968;14.538;2022-12-07T06:40:37;9.60;99.90
48768;DHT22;34933;40.968;14.538;2022-12-07T06:43:22;9.80;99.90
48768;DHT22;34933;40.968;14.538;2022-12-07T06:46:07;9.90;99.90
48768;DHT22;34933;40.968;14.538;2022-12-07T06:48:51;9.90;99.90
48768;DHT22;34933;40.968;14.538;2022-12-07T06:51:36;10.00;99.90
48768;DHT22;34933;40.968;14.538;2022-12-07T06:54:20;10.00;99.90
48768;DHT22;34933;40.968;14.538;2022-12-07T06:57:05;10.10;99.90
48768;DHT22;34933;40.968;14.538;2022-12-07T06:59:49;10.20;99.90
48768;DHT22;34933;40.968;14.538;2022-12-07T07:02:34;10.30;99.90
48768;DHT22;34933;40.968;14.538;2022-12-07T07:05:19;10.40;99.90
48768;DHT22;34933;40.968;14.538;2022-12-07T07:08:06;10.40;99.90
48768;DHT22;34933;40.968;14.538;2022-12-07T07:10:50;10.50;99.90
48768;DHT22;34933;40.968;14.538;2022-12-07T07:13:35;10.60;99.90
48768;DHT22;34933;40.968;14.538;2022-12-07T07:16:20;10.60;99.90
48768;DHT22;34933;40.968;14.538;2022-12-07T07:19:04;10.70;99.90
48768;DHT22;34933;40.968;14.538;2022-12-07T07:21:49;10.80;99.90
48768;DHT22;34933;40.968;14.538;2022-12-07T07:24:34;10.80;99.90
48768;DHT22;34933;40.968;14.538;2022-12-07T07:27:19;10.90;99.90
48768;DHT22;34933;40.968;14.538;2022-12-07T07:30:04;11.10;99.90
48768;DHT22;34933;40.968;14.538;2022-12-07T07:32:49;11.30;99.90
48768;DHT22;34933;40.968;14.538;2022-12-07T07:35:34;11.40;99.90
48768;DHT22;34933;40.968;14.538;2022-12-07T07:38:18;11.60;99.90
48768;DHT22;34933;40.968;14.538;2022-12-07T07:41:03;11.80;99.90
48768;DHT22;34933;40.968;14.538;2022-12-07T07:43:47;12.00;99.90
48768;DHT22;34933;40.968;14.538;2022-12-07T07:46:32;12.10;99.90
48768;DHT22;34933;40.968;14.538;2022-12-07T07:49:17;12.20;99.90
48768;DHT22;34933;40.968;14.538;2022-12-07T07:52:02;12.30;99.90
48768;DHT22;34933;40.968;14.538;2022-12-07T07:54:46;12.50;99.90
48768;DHT22;34933;40.968;14.538;2022-12-07T07:57:32;12.60;99.90
48768;DHT22;34933;40.968;14.538;2022-12-07T08:00:16;12.80;99.90
48768;DHT22;34933;40.968;14.538;2022-12-07T08:03:01;12.80;99.90
48768;DHT22;34933;40.968;14.538;2022-12-07T08:05:47;12.80;99.90
48768;DHT22;34933;40.968;14.538;2022-12-07T08:08:32;12.70;99.90
48768;DHT22;34933;40.968;14.538;2022-12-07T08:11:18;12.80;99.90
48768;DHT22;34933;40.968;14.538;2022-12-07T08:14:02;12.90;99.90
48768;DHT22;34933;40.968;14.538;2022-12-07T08:16:47;13.00;99.90
48768;DHT22;34933;40.968;14.538;2022-12-07T08:19:31;13.30;99.90
48768;DHT22;34933;40.968;14.538;2022-12-07T08:22:17;13.60;99.90
48768;DHT22;34933;40.968;14.538;2022-12-07T08:25:01;13.80;99.90
48768;DHT22;34933;40.968;14.538;2022-12-07T08:27:46;14.10;99.90
48768;DHT22;34933;40.968;14.538;2022-12-07T08:30:31;14.40;99.90
48768;DHT22;34933;40.968;14.538;2022-12-07T08:33:16;14.70;99.90
48768;DHT22;34933;40.968;14.538;2022-12-07T08:36:02;14.90;99.90
48768;DHT22;34933;40.968;14.538;2022-12-07T08:38:48;15.10;99.90
48768;DHT22;34933;40.968;14.538;2022-12-07T08:41:33;15.20;99.90
48768;DHT22;34933;40.968;14.538;2022-12-07T08:44:18;15.30;99.90
48768;DHT22;34933;40.968;14.538;2022-12-07T08:47:04;15.30;99.90
48768;DHT22;34933;40.968;14.538;2022-12-07T08:49:52;15.30;99.90
48768;DHT22;34933;40.968;14.538;2022-12-07T08:52:39;15.30;99.90
48768;DHT22;34933;40.968;14.538;2022-12-07T08:55:25;15.30;99.90
48768;DHT22;34933;40.968;14.538;2022-12-07T08:58:10;15.30;99.90
48768;DHT22;34933;40.968;14.538;2022-12-07T09:00:54;15.40;99.90
48768;DHT22;34933;40.968;14.538;2022-12-07T09:03:39;15.60;99.90
48768;DHT22;34933;40.968;14.538;2022-12-07T09:06:23;15.60;99.90
48768;DHT22;34933;40.968;14.538;2022-12-07T09:09:09;15.70;99.90
48768;DHT22;34933;40.968;14.538;2022-12-07T09:11:54;15.70;99.90
48768;DHT22;34933;40.968;14.538;2022-12-07T09:14:39;15.80;99.90
48768;DHT22;34933;40.968;14.538;2022-12-07T09:17:23;15.80;99.90
48768;DHT22;34933;40.968;14.538;2022-12-07T09:20:08;15.80;99.90
48768;DHT22;34933;40.968;14.538;2022-12-07T09:22:53;15.90;99.90
48768;DHT22;34933;40.968;14.538;2022-12-07T09:25:38;16.10;99.90
48768;DHT22;34933;40.968;14.538;2022-12-07T09:28:23;16.20;99.90
48768;DHT22;34933;40.968;14.538;2022-12-07T09:31:08;16.30;99.90
48768;DHT22;34933;40.968;14.538;2022-12-07T09:33:57;16.50;99.90
48768;DHT22;34933;40.968;14.538;2022-12-07T09:36:42;16.70;99.90
48768;DHT22;34933;40.968;14.538;2022-12-07T09:39:27;16.90;99.90
48768;DHT22;34933;40.968;14.538;2022-12-07T09:42:32;17.20;99.90
48768;DHT22;34933;40.968;14.538;2022-12-07T09:45:34;17.50;99.90
48768;DHT22;34933;40.968;14.538;2022-12-07T09:48:31;17.50;99.90
48768;DHT22;34933;40.968;14.538;2022-12-07T09:51:21;17.60;99.90
48768;DHT22;34933;40.968;14.538;2022-12-07T09:54:07;17.70;99.90
48768;DHT22;34933;40.968;14.538;2022-12-07T09:56:53;17.90;99.90
48768;DHT22;34933;40.968;14.538;2022-12-07T09:59:38;18.00;99.90
48768;DHT22;34933;40.968;14.538;2022-12-07T10:02:28;18.00;99.90
48768;DHT22;34933;40.968;14.538;2022-12-07T10:05:21;18.20;99.90
48768;DHT22;34933;40.968;14.538;2022-12-07T10:08:11;18.00;99.90
48768;DHT22;34933;40.968;14.538;2022-12-07T10:10:56;17.90;99.90
48768;DHT22;34933;40.968;14.538;2022-12-07T10:13:46;17.90;99.90
48768;DHT22;34933;40.968;14.538;2022-12-07T10:16:39;17.80;99.90
48768;DHT22;34933;40.968;14.538;2022-12-07T10:22:15;17.90;99.90
48768;DHT22;34933;40.968;14.538;2022-12-07T10:25:09;17.90;99.90
48768;DHT22;34933;40.968;14.538;2022-12-07T10:28:02;17.90;99.90
48768;DHT22;34933;40.968;14.538;2022-12-07T10:31:31;17.90;99.90
48768;DHT22;34933;40.968;14.538;2022-12-07T10:34:00;17.90;99.90
48768;DHT22;34933;40.968;14.538;2022-12-07T10:36:45;18.10;99.90
48768;DHT22;34933;40.968;14.538;2022-12-07T10:39:44;18.30;99.90
48768;DHT22;34933;40.968;14.538;2022-12-07T10:42:32;18.40;99.90
48768;DHT22;34933;40.968;14.538;2022-12-07T10:45:18;18.40;99.90
48768;DHT22;34933;40.968;14.538;2022-12-07T10:50:56;18.40;99.90
48768;DHT22;34933;40.968;14.538;2022-12-07T11:18:51;19.80;99.90
48768;DHT22;34933;40.968;14.538;2022-12-07T11:27:55;20.10;99.90
48768;DHT22;34933;40.968;14.538;2022-12-07T11:36:49;20.60;99.90
48768;DHT22;34933;40.968;14.538;2022-12-07T11:39:46;21.00;99.90
48768;DHT22;34933;40.968;14.538;2022-12-07T11:42:46;20.80;99.90
48768;DHT22;34933;40.968;14.538;2022-12-07T11:45:35;20.70;99.90
48768;DHT22;34933;40.968;14.538;2022-12-07T11:51:16;21.30;99.90
48768;DHT22;34933;40.968;14.538;2022-12-07T11:54:11;21.50;99.90
48768;DHT22;34933;40.968;14.538;2022-12-07T11:57:02;21.60;99.90
48768;DHT22;34933;40.968;14.538;2022-12-07T11:59:52;21.50;98.70
48768;DHT22;34933;40.968;14.538;2022-12-07T12:02:44;21.30;98.50
48768;DHT22;34933;40.968;14.538;2022-12-07T12:05:30;21.20;99.40
48768;DHT22;34933;40.968;14.538;2022-12-07T12:08:19;21.10;99.40
48768;DHT22;34933;40.968;14.538;2022-12-07T12:11:52;20.80;98.10
48768;DHT22;34933;40.968;14.538;2022-12-07T12:17:34;20.60;98.20
48768;DHT22;34933;40.968;14.538;2022-12-07T12:20:49;20.50;98.90
48768;DHT22;34933;40.968;14.538;2022-12-07T12:23:41;20.40;99.40
48768;DHT22;34933;40.968;14.538;2022-12-07T12:26:30;20.60;99.30
48768;DHT22;34933;40.968;14.538;2022-12-07T12:32:39;20.70;98.10
48768;DHT22;34933;40.968;14.538;2022-12-07T12:35:32;21.40;98.90
48768;DHT22;34933;40.968;14.538;2022-12-07T12:47:43;21.50;98.70
48768;DHT22;34933;40.968;14.538;2022-12-07T12:50:36;20.50;99.60
48768;DHT22;34933;40.968;14.538;2022-12-07T12:53:25;19.70;99.90
48768;DHT22;34933;40.968;14.538;2022-12-07T12:59:31;19.50;99.90
48768;DHT22;34933;40.968;14.538;2022-12-07T13:02:47;19.60;99.90
48768;DHT22;34933;40.968;14.538;2022-12-07T13:05:32;19.70;99.90
48768;DHT22;34933;40.968;14.538;2022-12-07T13:08:24;19.30;99.90
48768;DHT22;34933;40.968;14.538;2022-12-07T13:11:32;19.30;99.90
48768;DHT22;34933;40.968;14.538;2022-12-07T13:14:42;19.30;99.90
48768;DHT22;34933;40.968;14.538;2022-12-07T13:20:42;18.90;99.90
48768;DHT22;34933;40.968;14.538;2022-12-07T13:29:19;18.90;99.90
48768;DHT22;34933;40.968;14.538;2022-12-07T13:32:24;19.00;99.90
48768;DHT22;34933;40.968;14.538;2022-12-07T13:35:33;19.20;99.90
48768;DHT22;34933;40.968;14.538;2022-12-07T13:38:25;19.40;99.90
48768;DHT22;34933;40.968;14.538;2022-12-07T13:41:16;19.40;99.90
48768;DHT22;34933;40.968;14.538;2022-12-07T13:44:13;19.30;99.90
48768;DHT22;34933;40.968;14.538;2022-12-07T13:50:27;19.30;99.90
48768;DHT22;34933;40.968;14.538;2022-12-07T13:53:13;19.90;99.90
48768;DHT22;34933;40.968;14.538;2022-12-07T13:55:59;20.40;99.90
48768;DHT22;34933;40.968;14.538;2022-12-07T13:58:44;20.40;99.90
48768;DHT22;34933;40.968;14.538;2022-12-07T14:01:31;19.90;99.90
48768;DHT22;34933;40.968;14.538;2022-12-07T14:04:32;19.80;99.90
48768;DHT22;34933;40.968;14.538;2022-12-07T14:07:23;19.80;99.90
48768;DHT22;34933;40.968;14.538;2022-12-07T14:10:26;19.80;99.90
48768;DHT22;34933;40.968;14.538;2022-12-07T14:22:41;19.60;99.90
48768;DHT22;34933;40.968;14.538;2022-12-07T14:25:26;19.50;99.90
48768;DHT22;34933;40.968;14.538;2022-12-07T14:28:29;19.40;99.90
48768;DHT22;34933;40.968;14.538;2022-12-07T14:31:17;19.20;99.90
48768;DHT22;34933;40.968;14.538;2022-12-07T14:34:03;18.90;99.90
48768;DHT22;34933;40.968;14.538;2022-12-07T14:36:48;18.80;99.90
48768;DHT22;34933;40.968;14.538;2022-12-07T14:39:33;18.70;99.90
48768;DHT22;34933;40.968;14.538;2022-12-07T14:42:17;18.70;99.90
48768;DHT22;34933;40.968;14.538;2022-12-07T14:45:02;18.70;99.90
48768;DHT22;34933;40.968;14.538;2022-12-07T14:47:47;18.60;99.90
48768;DHT22;34933;40.968;14.538;2022-12-07T14:50:35;18.60;99.90
48768;DHT22;34933;40.968;14.538;2022-12-07T14:53:28;18.50;99.90
48768;DHT22;34933;40.968;14.538;2022-12-07T14:56:13;18.50;99.90
48768;DHT22;34933;40.968;14.538;2022-12-07T14:58:58;18.40;99.90
48768;DHT22;34933;40.968;14.538;2022-12-07T15:01:43;18.40;99.90
48768;DHT22;34933;40.968;14.538;2022-12-07T15:04:27;18.30;99.90
48768;DHT22;34933;40.968;14.538;2022-12-07T15:07:19;18.20;99.90
48768;DHT22;34933;40.968;14.538;2022-12-07T15:10:05;18.10;99.90
48768;DHT22;34933;40.968;14.538;2022-12-07T15:12:50;17.90;99.90
48768;DHT22;34933;40.968;14.538;2022-12-07T15:15:35;17.80;99.90
48768;DHT22;34933;40.968;14.538;2022-12-07T15:18:21;17.60;99.90
48768;DHT22;34933;40.968;14.538;2022-12-07T15:21:12;17.40;99.90
48768;DHT22;34933;40.968;14.538;2022-12-07T15:23:57;17.20;99.90
48768;DHT22;34933;40.968;14.538;2022-12-07T15:26:44;16.90;99.90
48768;DHT22;34933;40.968;14.538;2022-12-07T15:29:29;16.60;99.90
48768;DHT22;34933;40.968;14.538;2022-12-07T15:32:14;16.40;99.90
48768;DHT22;34933;40.968;14.538;2022-12-07T15:34:59;16.20;99.90
48768;DHT22;34933;40.968;14.538;2022-12-07T15:37:43;16.00;99.90
48768;DHT22;34933;40.968;14.538;2022-12-07T15:40:29;15.80;99.90
48768;DHT22;34933;40.968;14.538;2022-12-07T15:43:13;15.70;99.90
48768;DHT22;34933;40.968;14.538;2022-12-07T15:46:16;15.60;99.90
48768;DHT22;34933;40.968;14.538;2022-12-07T15:49:01;15.50;99.90
48768;DHT22;34933;40.968;14.538;2022-12-07T15:51:46;15.30;99.90
48768;DHT22;34933;40.968;14.538;2022-12-07T15:54:31;15.20;99.90
48768;DHT22;34933;40.968;14.538;2022-12-07T15:57:16;15.20;99.90
48768;DHT22;34933;40.968;14.538;2022-12-07T16:00:01;15.10;99.90
48768;DHT22;34933;40.968;14.538;2022-12-07T16:02:48;15.00;99.90
48768;DHT22;34933;40.968;14.538;2022-12-07T16:05:33;15.00;99.90
48768;DHT22;34933;40.968;14.538;2022-12-07T16:08:17;14.90;99.90
48768;DHT22;34933;40.968;14.538;2022-12-07T16:11:06;14.70;99.90
48768;DHT22;34933;40.968;14.538;2022-12-07T16:13:51;14.50;99.90
48768;DHT22;34933;40.968;14.538;2022-12-07T16:16:36;14.50;99.90
48768;DHT22;34933;40.968;14.538;2022-12-07T16:19:20;14.50;99.90
48768;DHT22;34933;40.968;14.538;2022-12-07T16:22:05;14.60;99.90
48768;DHT22;34933;40.968;14.538;2022-12-07T16:24:50;14.50;99.90
48768;DHT22;34933;40.968;14.538;2022-12-07T16:27:34;14.30;99.90
48768;DHT22;34933;40.968;14.538;2022-12-07T16:30:19;14.20;99.90
48768;DHT22;34933;40.968;14.538;2022-12-07T16:33:04;14.20;99.90
48768;DHT22;34933;40.968;14.538;2022-12-07T16:35:48;14.10;99.90
48768;DHT22;34933;40.968;14.538;2022-12-07T16:38:34;14.10;99.90
48768;DHT22;34933;40.968;14.538;2022-12-07T16:41:19;14.00;99.90
48768;DHT22;34933;40.968;14.538;2022-12-07T16:44:10;13.90;99.90
48768;DHT22;34933;40.968;14.538;2022-12-07T16:46:55;13.80;99.90
48768;DHT22;34933;40.968;14.538;2022-12-07T16:49:39;13.70;99.90
48768;DHT22;34933;40.968;14.538;2022-12-07T16:52:24;13.50;99.90
48768;DHT22;34933;40.968;14.538;2022-12-07T16:55:09;13.40;99.90
48768;DHT22;34933;40.968;14.538;2022-12-07T16:57:53;13.40;99.90
48768;DHT22;34933;40.968;14.538;2022-12-07T17:00:39;13.30;99.90
48768;DHT22;34933;40.968;14.538;2022-12-07T17:03:23;13.10;99.90
48768;DHT22;34933;40.968;14.538;2022-12-07T17:06:16;13.00;99.90
48768;DHT22;34933;40.968;14.538;2022-12-07T17:09:02;13.00;99.90
48768;DHT22;34933;40.968;14.538;2022-12-07T17:11:48;13.00;99.90
48768;DHT22;34933;40.968;14.538;2022-12-07T17:14:32;12.80;99.90
48768;DHT22;34933;40.968;14.538;2022-12-07T17:17:35;12.80;99.90
48768;DHT22;34933;40.968;14.538;2022-12-07T17:20:22;12.70;99.90
48768;DHT22;34933;40.968;14.538;2022-12-07T17:23:06;12.80;99.90
48768;DHT22;34933;40.968;14.538;2022-12-07T17:25:50;12.80;99.90
48768;DHT22;34933;40.968;14.538;2022-12-07T17:28:36;12.70;99.90
48768;DHT22;34933;40.968;14.538;2022-12-07T17:31:22;12.70;99.90
48768;DHT22;34933;40.968;14.538;2022-12-07T17:34:14;12.70;99.90
48768;DHT22;34933;40.968;14.538;2022-12-07T17:36:59;12.70;99.90
48768;DHT22;34933;40.968;14.538;2022-12-07T17:39:44;12.70;99.90
48768;DHT22;34933;40.968;14.538;2022-12-07T17:42:28;12.70;99.90
48768;DHT22;34933;40.968;14.538;2022-12-07T17:45:23;12.70;99.90
48768;DHT22;34933;40.968;14.538;2022-12-07T17:48:08;12.60;99.90
48768;DHT22;34933;40.968;14.538;2022-12-07T17:50:52;12.60;99.90
48768;DHT22;34933;40.968;14.538;2022-12-07T17:53:55;12.60;99.90
48768;DHT22;34933;40.968;14.538;2022-12-07T17:56:44;12.60;99.90
48768;DHT22;34933;40.968;14.538;2022-12-07T17:59:29;12.50;99.90
48768;DHT22;34933;40.968;14.538;2022-12-07T18:02:14;12.60;99.90
48768;DHT22;34933;40.968;14.538;2022-12-07T18:04:58;12.60;99.90
48768;DHT22;34933;40.968;14.538;2022-12-07T18:07:43;12.60;99.90
48768;DHT22;34933;40.968;14.538;2022-12-07T18:10:28;12.60;99.90
48768;DHT22;34933;40.968;14.538;2022-12-07T18:13:12;12.70;99.90
48768;DHT22;34933;40.968;14.538;2022-12-07T18:16:18;12.70;99.90
48768;DHT22;34933;40.968;14.538;2022-12-07T18:19:05;12.70;99.90
48768;DHT22;34933;40.968;14.538;2022-12-07T18:21:50;12.70;99.90
48768;DHT22;34933;40.968;14.538;2022-12-07T18:24:34;12.70;99.90
48768;DHT22;34933;40.968;14.538;2022-12-07T18:27:21;12.70;99.90
48768;DHT22;34933;40.968;14.538;2022-12-07T18:30:06;12.70;99.90
48768;DHT22;34933;40.968;14.538;2022-12-07T18:32:50;12.60;99.90
48768;DHT22;34933;40.968;14.538;2022-12-07T18:35:35;12.60;99.90
48768;DHT22;34933;40.968;14.538;2022-12-07T18:38:20;12.50;99.90
48768;DHT22;34933;40.968;14.538;2022-12-07T18:41:09;12.50;99.90
48768;DHT22;34933;40.968;14.538;2022-12-07T18:43:54;12.40;99.90
48768;DHT22;34933;40.968;14.538;2022-12-07T18:46:39;12.40;99.90
48768;DHT22;34933;40.968;14.538;2022-12-07T18:49:25;12.40;99.90
48768;DHT22;34933;40.968;14.538;2022-12-07T18:52:10;12.30;99.90
48768;DHT22;34933;40.968;14.538;2022-12-07T18:54:55;12.30;99.90
48768;DHT22;34933;40.968;14.538;2022-12-07T18:57:39;12.20;99.90
48768;DHT22;34933;40.968;14.538;2022-12-07T19:00:26;12.20;99.90
48768;DHT22;34933;40.968;14.538;2022-12-07T19:03:11;12.10;99.90
48768;DHT22;34933;40.968;14.538;2022-12-07T19:05:56;12.00;99.90
48768;DHT22;34933;40.968;14.538;2022-12-07T19:08:41;11.90;99.90
48768;DHT22;34933;40.968;14.538;2022-12-07T19:11:27;11.90;99.90
48768;DHT22;34933;40.968;14.538;2022-12-07T19:14:34;11.80;99.90
48768;DHT22;34933;40.968;14.538;2022-12-07T19:17:18;11.80;99.90
48768;DHT22;34933;40.968;14.538;2022-12-07T19:20:05;11.70;99.90
48768;DHT22;34933;40.968;14.538;2022-12-07T19:22:49;11.70;99.90
48768;DHT22;34933;40.968;14.538;2022-12-07T19:25:34;11.70;99.90
48768;DHT22;34933;40.968;14.538;2022-12-07T19:28:19;11.60;99.90
48768;DHT22;34933;40.968;14.538;2022-12-07T19:31:07;11.40;99.90
48768;DHT22;34933;40.968;14.538;2022-12-07T19:33:52;11.40;99.90